sensor_id;sensor_type;location;lat;lon;timestamp;pressure;altitude;pressure_sealevel;temperature;humidity
52591;BME280;38483;42.620;25.394;2023-04-03T00:01:06;96303.63;;;13.07;58.57
52591;BME280;38483;42.620;25.394;2023-04-03T00:03:33;96308.50;;;12.99;58.05
52591;BME280;38483;42.620;25.394;2023-04-03T00:06:00;96309.47;;;13.11;58.15
52591;BME280;38483;42.620;25.394;2023-04-03T00:08:27;96308.97;;;13.19;57.96
52591;BME280;38483;42.620;25.394;2023-04-03T00:10:57;96308.22;;;13.17;57.76
52591;BME280;38483;42.620;25.394;2023-04-03T00:13:24;96298.25;;;13.11;57.79
52591;BME280;38483;42.620;25.394;2023-04-03T00:15:52;96300.84;;;13.11;58.01
52591;BME280;38483;42.620;25.394;2023-04-03T00:18:19;96306.97;;;13.10;57.67
52591;BME280;38483;42.620;25.394;2023-04-03T00:20:46;96299.66;;;12.89;59.03
52591;BME280;38483;42.620;25.394;2023-04-03T00:23:13;96301.72;;;12.97;58.55
52591;BME280;38483;42.620;25.394;2023-04-03T00:25:41;96286.66;;;12.89;58.63
52591;BME280;38483;42.620;25.394;2023-04-03T00:28:08;96302.13;;;12.91;59.39
52591;BME280;38483;42.620;25.394;2023-04-03T00:30:35;96306.56;;;12.76;60.01
52591;BME280;38483;42.620;25.394;2023-04-03T00:33:02;96308.78;;;12.82;59.33
52591;BME280;38483;42.620;25.394;2023-04-03T00:35:29;96297.88;;;12.77;59.58
52591;BME280;38483;42.620;25.394;2023-04-03T00:37:57;96296.28;;;12.62;59.33
52591;BME280;38483;42.620;25.394;2023-04-03T00:40:25;96298.31;;;12.57;59.31
52591;BME280;38483;42.620;25.394;2023-04-03T00:42:58;96295.84;;;12.56;59.50
52591;BME280;38483;42.620;25.394;2023-04-03T00:45:32;96279.88;;;12.35;60.94
52591;BME280;38483;42.620;25.394;2023-04-03T00:48:00;96289.03;;;12.41;60.77
52591;BME280;38483;42.620;25.394;2023-04-03T00:50:29;96270.00;;;12.27;60.43
52591;BME280;38483;42.620;25.394;2023-04-03T00:52:56;96287.72;;;12.21;60.84
52591;BME280;38483;42.620;25.394;2023-04-03T00:55:24;96303.94;;;12.24;60.64
52591;BME280;38483;42.620;25.394;2023-04-03T00:57:52;96307.53;;;12.09;60.94
52591;BME280;38483;42.620;25.394;2023-04-03T01:00:20;96320.78;;;12.05;61.64
52591;BME280;38483;42.620;25.394;2023-04-03T01:02:50;96316.41;;;12.19;61.49
52591;BME280;38483;42.620;25.394;2023-04-03T01:05:19;96316.94;;;11.84;62.50
52591;BME280;38483;42.620;25.394;2023-04-03T01:07:48;96313.03;;;11.48;64.00
52591;BME280;38483;42.620;25.394;2023-04-03T01:10:16;96320.06;;;11.61;63.88
52591;BME280;38483;42.620;25.394;2023-04-03T01:12:46;96315.47;;;11.52;63.92
52591;BME280;38483;42.620;25.394;2023-04-03T01:15:20;96316.22;;;11.39;64.33
52591;BME280;38483;42.620;25.394;2023-04-03T01:17:53;96309.50;;;11.07;65.40
52591;BME280;38483;42.620;25.394;2023-04-03T01:25:45;96322.22;;;10.82;65.79
52591;BME280;38483;42.620;25.394;2023-04-03T01:28:48;96313.31;;;10.58;65.86
52591;BME280;38483;42.620;25.394;2023-04-03T01:33:43;96324.47;;;10.29;67.67
52591;BME280;38483;42.620;25.394;2023-04-03T01:36:18;96315.38;;;9.91;68.41
52591;BME280;38483;42.620;25.394;2023-04-03T01:38:46;96330.13;;;9.73;69.26
52591;BME280;38483;42.620;25.394;2023-04-03T01:41:13;96331.78;;;9.58;70.03
52591;BME280;38483;42.620;25.394;2023-04-03T01:43:42;96310.66;;;9.50;71.05
52591;BME280;38483;42.620;25.394;2023-04-03T01:46:09;96312.28;;;9.53;70.60
52591;BME280;38483;42.620;25.394;2023-04-03T01:48:37;96323.22;;;9.58;70.38
52591;BME280;38483;42.620;25.394;2023-04-03T01:51:04;96316.09;;;9.46;70.04
52591;BME280;38483;42.620;25.394;2023-04-03T01:53:31;96324.34;;;9.52;69.91
52591;BME280;38483;42.620;25.394;2023-04-03T01:55:58;96316.78;;;9.49;69.41
52591;BME280;38483;42.620;25.394;2023-04-03T01:58:25;96328.09;;;9.62;69.07
52591;BME280;38483;42.620;25.394;2023-04-03T02:00:53;96327.28;;;9.77;68.61
52591;BME280;38483;42.620;25.394;2023-04-03T02:03:21;96326.06;;;9.84;68.04
52591;BME280;38483;42.620;25.394;2023-04-03T02:05:49;96331.66;;;9.93;67.81
52591;BME280;38483;42.620;25.394;2023-04-03T02:08:16;96342.56;;;9.98;67.17
52591;BME280;38483;42.620;25.394;2023-04-03T02:10:48;96327.13;;;9.96;66.82
52591;BME280;38483;42.620;25.394;2023-04-03T02:13:16;96329.66;;;10.13;66.71
52591;BME280;38483;42.620;25.394;2023-04-03T02:15:44;96344.00;;;10.03;66.90
52591;BME280;38483;42.620;25.394;2023-04-03T02:18:15;96333.81;;;10.00;66.96
52591;BME280;38483;42.620;25.394;2023-04-03T02:20:43;96327.78;;;10.00;67.03
52591;BME280;38483;42.620;25.394;2023-04-03T02:23:10;96319.63;;;9.92;67.20
52591;BME280;38483;42.620;25.394;2023-04-03T02:25:37;96341.16;;;9.92;66.98
52591;BME280;38483;42.620;25.394;2023-04-03T02:28:05;96339.97;;;9.98;67.11
52591;BME280;38483;42.620;25.394;2023-04-03T02:30:32;96340.66;;;10.01;66.78
52591;BME280;38483;42.620;25.394;2023-04-03T02:32:59;96340.22;;;10.09;66.52
52591;BME280;38483;42.620;25.394;2023-04-03T02:35:27;96349.03;;;10.22;66.17
52591;BME280;38483;42.620;25.394;2023-04-03T02:37:56;96332.97;;;10.31;65.65
52591;BME280;38483;42.620;25.394;2023-04-03T02:40:23;96348.19;;;10.21;65.40
52591;BME280;38483;42.620;25.394;2023-04-03T02:42:50;96350.72;;;10.06;66.19
52591;BME280;38483;42.620;25.394;2023-04-03T02:45:18;96350.75;;;9.74;66.93
52591;BME280;38483;42.620;25.394;2023-04-03T02:47:45;96343.63;;;9.62;67.54
52591;BME280;38483;42.620;25.394;2023-04-03T02:50:12;96353.50;;;9.39;68.06
52591;BME280;38483;42.620;25.394;2023-04-03T02:52:39;96356.41;;;9.33;68.43
52591;BME280;38483;42.620;25.394;2023-04-03T02:55:07;96340.50;;;9.40;68.20
52591;BME280;38483;42.620;25.394;2023-04-03T02:57:34;96350.13;;;9.21;69.00
52591;BME280;38483;42.620;25.394;2023-04-03T03:00:02;96337.34;;;9.02;68.88
52591;BME280;38483;42.620;25.394;2023-04-03T03:02:29;96348.38;;;9.22;69.09
52591;BME280;38483;42.620;25.394;2023-04-03T03:04:56;96348.06;;;9.28;68.89
52591;BME280;38483;42.620;25.394;2023-04-03T03:07:24;96346.94;;;9.33;68.23
52591;BME280;38483;42.620;25.394;2023-04-03T03:09:51;96346.03;;;9.50;68.14
52591;BME280;38483;42.620;25.394;2023-04-03T03:12:18;96323.19;;;9.10;68.10
52591;BME280;38483;42.620;25.394;2023-04-03T03:14:49;96330.16;;;9.08;68.74
52591;BME280;38483;42.620;25.394;2023-04-03T03:17:16;96341.78;;;8.99;68.74
52591;BME280;38483;42.620;25.394;2023-04-03T03:19:44;96338.41;;;8.81;69.63
52591;BME280;38483;42.620;25.394;2023-04-03T03:22:12;96338.09;;;8.87;69.45
52591;BME280;38483;42.620;25.394;2023-04-03T03:24:39;96322.28;;;8.76;69.05
52591;BME280;38483;42.620;25.394;2023-04-03T03:27:06;96327.59;;;8.90;68.43
52591;BME280;38483;42.620;25.394;2023-04-03T03:29:33;96333.28;;;9.14;67.93
52591;BME280;38483;42.620;25.394;2023-04-03T03:32:01;96318.31;;;9.21;67.20
52591;BME280;38483;42.620;25.394;2023-04-03T03:34:29;96322.47;;;9.23;67.50
52591;BME280;38483;42.620;25.394;2023-04-03T03:36:55;96330.22;;;9.23;67.64
52591;BME280;38483;42.620;25.394;2023-04-03T03:39:22;96317.91;;;9.11;68.33
52591;BME280;38483;42.620;25.394;2023-04-03T03:41:49;96313.47;;;9.30;67.49
52591;BME280;38483;42.620;25.394;2023-04-03T03:44:17;96327.34;;;9.45;67.55
52591;BME280;38483;42.620;25.394;2023-04-03T03:46:43;96331.78;;;9.58;66.44
52591;BME280;38483;42.620;25.394;2023-04-03T03:49:11;96326.44;;;9.46;66.40
52591;BME280;38483;42.620;25.394;2023-04-03T03:51:39;96319.44;;;9.48;67.39
52591;BME280;38483;42.620;25.394;2023-04-03T03:54:07;96303.09;;;9.47;67.37
52591;BME280;38483;42.620;25.394;2023-04-03T03:56:35;96314.69;;;9.71;66.71
52591;BME280;38483;42.620;25.394;2023-04-03T03:59:02;96301.28;;;9.80;66.12
52591;BME280;38483;42.620;25.394;2023-04-03T04:01:31;96320.78;;;10.02;65.87
52591;BME280;38483;42.620;25.394;2023-04-03T04:03:58;96329.13;;;10.07;65.81
52591;BME280;38483;42.620;25.394;2023-04-03T04:06:29;96315.94;;;9.96;65.63
52591;BME280;38483;42.620;25.394;2023-04-03T04:09:01;96308.72;;;9.87;66.02
52591;BME280;38483;42.620;25.394;2023-04-03T04:11:29;96315.63;;;9.70;66.39
52591;BME280;38483;42.620;25.394;2023-04-03T04:13:56;96310.94;;;9.61;67.39
52591;BME280;38483;42.620;25.394;2023-04-03T04:16:26;96305.28;;;9.70;67.02
52591;BME280;38483;42.620;25.394;2023-04-03T04:18:55;96319.53;;;9.77;67.35
52591;BME280;38483;42.620;25.394;2023-04-03T04:21:23;96309.19;;;9.77;66.98
52591;BME280;38483;42.620;25.394;2023-04-03T04:23:52;96321.63;;;9.87;66.60
52591;BME280;38483;42.620;25.394;2023-04-03T04:26:19;96286.00;;;9.60;66.40
52591;BME280;38483;42.620;25.394;2023-04-03T04:28:47;96330.91;;;9.42;67.38
52591;BME280;38483;42.620;25.394;2023-04-03T04:31:16;96313.25;;;8.85;68.88
52591;BME280;38483;42.620;25.394;2023-04-03T04:33:43;96342.59;;;8.84;68.63
52591;BME280;38483;42.620;25.394;2023-04-03T04:36:12;96350.06;;;8.88;69.15
52591;BME280;38483;42.620;25.394;2023-04-03T04:38:43;96352.56;;;9.07;68.31
52591;BME280;38483;42.620;25.394;2023-04-03T04:41:11;96349.34;;;9.36;67.52
52591;BME280;38483;42.620;25.394;2023-04-03T04:43:38;96350.69;;;9.43;67.09
52591;BME280;38483;42.620;25.394;2023-04-03T04:46:10;96342.72;;;9.48;66.87
52591;BME280;38483;42.620;25.394;2023-04-03T04:48:44;96362.91;;;9.40;66.30
52591;BME280;38483;42.620;25.394;2023-04-03T04:51:12;96378.06;;;9.30;67.35
52591;BME280;38483;42.620;25.394;2023-04-03T04:53:40;96372.78;;;9.49;67.09
52591;BME280;38483;42.620;25.394;2023-04-03T04:56:09;96390.00;;;9.65;66.41
52591;BME280;38483;42.620;25.394;2023-04-03T04:58:37;96382.25;;;9.65;65.84
52591;BME280;38483;42.620;25.394;2023-04-03T05:01:07;96378.06;;;9.30;67.23
52591;BME280;38483;42.620;25.394;2023-04-03T05:03:38;96388.41;;;9.30;67.70
52591;BME280;38483;42.620;25.394;2023-04-03T05:06:05;96387.28;;;9.19;67.70
52591;BME280;38483;42.620;25.394;2023-04-03T05:08:34;96385.47;;;9.03;67.87
52591;BME280;38483;42.620;25.394;2023-04-03T05:11:02;96389.66;;;9.06;68.03
52591;BME280;38483;42.620;25.394;2023-04-03T05:13:30;96401.19;;;9.16;68.32
52591;BME280;38483;42.620;25.394;2023-04-03T05:15:57;96392.72;;;9.30;67.73
52591;BME280;38483;42.620;25.394;2023-04-03T05:18:24;96396.28;;;9.44;67.48
52591;BME280;38483;42.620;25.394;2023-04-03T05:20:55;96377.84;;;9.35;67.11
52591;BME280;38483;42.620;25.394;2023-04-03T05:23:25;96376.44;;;9.45;67.32
52591;BME280;38483;42.620;25.394;2023-04-03T05:25:53;96400.22;;;9.84;66.40
52591;BME280;38483;42.620;25.394;2023-04-03T05:28:20;96383.84;;;9.68;66.10
52591;BME280;38483;42.620;25.394;2023-04-03T05:30:56;96388.53;;;9.93;65.90
52591;BME280;38483;42.620;25.394;2023-04-03T05:33:26;96401.19;;;9.81;65.97
52591;BME280;38483;42.620;25.394;2023-04-03T05:35:56;96388.16;;;9.67;67.50
52591;BME280;38483;42.620;25.394;2023-04-03T05:38:26;96390.72;;;9.84;67.34
52591;BME280;38483;42.620;25.394;2023-04-03T05:40:56;96387.63;;;9.94;67.43
52591;BME280;38483;42.620;25.394;2023-04-03T05:43:23;96408.59;;;10.20;67.04
52591;BME280;38483;42.620;25.394;2023-04-03T05:45:51;96386.63;;;10.58;66.00
52591;BME280;38483;42.620;25.394;2023-04-03T05:48:20;96378.56;;;10.79;65.01
52591;BME280;38483;42.620;25.394;2023-04-03T05:50:48;96396.84;;;10.91;64.79
52591;BME280;38483;42.620;25.394;2023-04-03T05:53:25;96386.13;;;10.97;64.21
52591;BME280;38483;42.620;25.394;2023-04-03T05:55:55;96384.88;;;11.18;64.39
52591;BME280;38483;42.620;25.394;2023-04-03T05:58:23;96389.13;;;11.19;63.98
52591;BME280;38483;42.620;25.394;2023-04-03T06:00:52;96401.72;;;11.25;63.79
52591;BME280;38483;42.620;25.394;2023-04-03T06:03:19;96413.03;;;11.24;64.69
52591;BME280;38483;42.620;25.394;2023-04-03T06:05:46;96414.00;;;11.52;64.15
52591;BME280;38483;42.620;25.394;2023-04-03T06:08:13;96404.53;;;11.51;64.47
52591;BME280;38483;42.620;25.394;2023-04-03T06:10:41;96408.59;;;11.70;63.71
52591;BME280;38483;42.620;25.394;2023-04-03T06:13:08;96415.72;;;11.81;62.91
52591;BME280;38483;42.620;25.394;2023-04-03T06:15:35;96390.94;;;11.61;62.29
52591;BME280;38483;42.620;25.394;2023-04-03T06:18:02;96401.31;;;11.47;62.59
52591;BME280;38483;42.620;25.394;2023-04-03T06:20:29;96401.22;;;11.63;62.06
52591;BME280;38483;42.620;25.394;2023-04-03T06:22:58;96414.91;;;11.51;62.27
52591;BME280;38483;42.620;25.394;2023-04-03T06:25:26;96413.69;;;11.42;61.58
52591;BME280;38483;42.620;25.394;2023-04-03T06:27:54;96421.09;;;11.48;60.44
52591;BME280;38483;42.620;25.394;2023-04-03T06:30:22;96426.00;;;11.68;61.32
52591;BME280;38483;42.620;25.394;2023-04-03T06:32:49;96428.28;;;11.73;61.12
52591;BME280;38483;42.620;25.394;2023-04-03T06:35:17;96420.59;;;11.71;61.21
52591;BME280;38483;42.620;25.394;2023-04-03T06:37:44;96412.81;;;11.71;61.21
52591;BME280;38483;42.620;25.394;2023-04-03T06:40:19;96417.19;;;11.99;61.07
52591;BME280;38483;42.620;25.394;2023-04-03T06:42:47;96425.50;;;12.32;59.96
52591;BME280;38483;42.620;25.394;2023-04-03T06:45:17;96434.91;;;12.47;58.62
52591;BME280;38483;42.620;25.394;2023-04-03T06:47:44;96429.03;;;12.58;58.87
52591;BME280;38483;42.620;25.394;2023-04-03T06:50:20;96434.50;;;12.67;58.48
52591;BME280;38483;42.620;25.394;2023-04-03T06:52:47;96403.94;;;12.71;58.46
52591;BME280;38483;42.620;25.394;2023-04-03T06:55:14;96420.31;;;12.85;57.75
52591;BME280;38483;42.620;25.394;2023-04-03T06:57:41;96414.19;;;12.86;57.43
52591;BME280;38483;42.620;25.394;2023-04-03T07:00:08;96424.97;;;12.80;57.83
52591;BME280;38483;42.620;25.394;2023-04-03T07:02:36;96427.47;;;13.08;57.12
52591;BME280;38483;42.620;25.394;2023-04-03T07:05:04;96428.16;;;12.98;56.75
52591;BME280;38483;42.620;25.394;2023-04-03T07:07:31;96388.38;;;12.71;57.15
52591;BME280;38483;42.620;25.394;2023-04-03T07:10:00;96430.44;;;13.02;56.56
52591;BME280;38483;42.620;25.394;2023-04-03T07:12:28;96421.69;;;13.18;57.41
52591;BME280;38483;42.620;25.394;2023-04-03T07:14:55;96419.41;;;13.38;56.46
52591;BME280;38483;42.620;25.394;2023-04-03T07:17:22;96411.00;;;13.47;56.36
52591;BME280;38483;42.620;25.394;2023-04-03T07:19:49;96413.94;;;13.68;55.81
52591;BME280;38483;42.620;25.394;2023-04-03T07:22:16;96414.75;;;13.81;55.62
52591;BME280;38483;42.620;25.394;2023-04-03T07:24:43;96423.69;;;13.89;54.93
52591;BME280;38483;42.620;25.394;2023-04-03T07:27:11;96429.50;;;14.06;54.32
52591;BME280;38483;42.620;25.394;2023-04-03T07:29:39;96432.41;;;14.14;53.64
52591;BME280;38483;42.620;25.394;2023-04-03T07:32:06;96434.28;;;14.24;54.09
52591;BME280;38483;42.620;25.394;2023-04-03T07:34:33;96427.00;;;14.42;53.14
52591;BME280;38483;42.620;25.394;2023-04-03T07:37:01;96431.59;;;14.38;53.13
52591;BME280;38483;42.620;25.394;2023-04-03T07:39:29;96417.78;;;14.49;52.73
52591;BME280;38483;42.620;25.394;2023-04-03T07:41:56;96390.56;;;14.29;52.68
52591;BME280;38483;42.620;25.394;2023-04-03T07:44:24;96435.78;;;14.64;51.96
52591;BME280;38483;42.620;25.394;2023-04-03T07:46:51;96435.63;;;14.79;51.55
52591;BME280;38483;42.620;25.394;2023-04-03T07:49:18;96419.06;;;14.43;51.91
52591;BME280;38483;42.620;25.394;2023-04-03T07:51:45;96433.13;;;14.77;51.00
52591;BME280;38483;42.620;25.394;2023-04-03T07:54:13;96423.00;;;14.96;50.71
52591;BME280;38483;42.620;25.394;2023-04-03T07:56:40;96408.88;;;14.64;51.40
52591;BME280;38483;42.620;25.394;2023-04-03T07:59:09;96416.72;;;14.88;50.82
52591;BME280;38483;42.620;25.394;2023-04-03T08:01:36;96425.53;;;14.98;51.07
52591;BME280;38483;42.620;25.394;2023-04-03T08:04:03;96424.03;;;15.06;51.15
52591;BME280;38483;42.620;25.394;2023-04-03T08:06:31;96396.28;;;15.05;50.35
52591;BME280;38483;42.620;25.394;2023-04-03T08:09:16;96411.47;;;15.11;50.69
52591;BME280;38483;42.620;25.394;2023-04-03T08:11:43;96411.34;;;15.13;50.71
52591;BME280;38483;42.620;25.394;2023-04-03T08:14:12;96412.00;;;15.27;50.56
52591;BME280;38483;42.620;25.394;2023-04-03T08:16:45;96409.19;;;15.41;50.29
52591;BME280;38483;42.620;25.394;2023-04-03T08:19:13;96407.03;;;15.35;50.44
52591;BME280;38483;42.620;25.394;2023-04-03T08:21:53;96399.84;;;15.39;50.24
52591;BME280;38483;42.620;25.394;2023-04-03T08:24:20;96395.81;;;15.46;49.86
52591;BME280;38483;42.620;25.394;2023-04-03T08:26:47;96399.41;;;15.45;49.69
52591;BME280;38483;42.620;25.394;2023-04-03T08:29:15;96394.56;;;15.52;49.42
52591;BME280;38483;42.620;25.394;2023-04-03T08:31:42;96384.94;;;15.17;48.30
52591;BME280;38483;42.620;25.394;2023-04-03T08:34:09;96403.31;;;15.16;48.75
52591;BME280;38483;42.620;25.394;2023-04-03T08:36:38;96391.50;;;15.34;47.59
52591;BME280;38483;42.620;25.394;2023-04-03T08:39:05;96374.63;;;15.16;47.50
52591;BME280;38483;42.620;25.394;2023-04-03T08:41:40;96389.59;;;15.36;47.90
52591;BME280;38483;42.620;25.394;2023-04-03T08:44:17;96378.88;;;15.17;49.29
52591;BME280;38483;42.620;25.394;2023-04-03T08:49:43;96373.53;;;15.07;49.37
52591;BME280;38483;42.620;25.394;2023-04-03T08:52:21;96366.94;;;15.25;49.56
52591;BME280;38483;42.620;25.394;2023-04-03T08:54:53;96378.63;;;15.43;48.71
52591;BME280;38483;42.620;25.394;2023-04-03T08:57:35;96379.50;;;15.77;46.57
52591;BME280;38483;42.620;25.394;2023-04-03T09:00:07;96383.78;;;15.78;45.39
52591;BME280;38483;42.620;25.394;2023-04-03T09:02:47;96377.25;;;15.73;46.83
52591;BME280;38483;42.620;25.394;2023-04-03T09:05:18;96359.00;;;15.95;45.04
52591;BME280;38483;42.620;25.394;2023-04-03T09:07:49;96371.06;;;16.18;45.76
52591;BME280;38483;42.620;25.394;2023-04-03T09:10:24;96372.38;;;16.23;46.43
52591;BME280;38483;42.620;25.394;2023-04-03T09:13:03;96371.91;;;16.29;46.73
52591;BME280;38483;42.620;25.394;2023-04-03T09:15:33;96366.84;;;16.49;46.17
52591;BME280;38483;42.620;25.394;2023-04-03T09:20:54;96343.31;;;15.62;48.20
52591;BME280;38483;42.620;25.394;2023-04-03T09:25:51;96350.78;;;15.99;47.65
52591;BME280;38483;42.620;25.394;2023-04-03T09:28:20;96357.19;;;16.17;47.69
52591;BME280;38483;42.620;25.394;2023-04-03T09:30:47;96346.97;;;16.14;48.29
52591;BME280;38483;42.620;25.394;2023-04-03T09:33:14;96343.91;;;15.98;48.60
52591;BME280;38483;42.620;25.394;2023-04-03T09:35:43;96332.03;;;15.94;49.01
52591;BME280;38483;42.620;25.394;2023-04-03T09:38:17;96323.00;;;15.98;48.86
52591;BME280;38483;42.620;25.394;2023-04-03T09:40:47;96348.88;;;16.01;48.40
52591;BME280;38483;42.620;25.394;2023-04-03T09:43:24;96343.53;;;15.81;49.12
52591;BME280;38483;42.620;25.394;2023-04-03T09:45:52;96357.09;;;15.97;49.04
52591;BME280;38483;42.620;25.394;2023-04-03T09:48:24;96364.66;;;16.00;49.76
52591;BME280;38483;42.620;25.394;2023-04-03T09:50:59;96366.22;;;15.91;49.47
52591;BME280;38483;42.620;25.394;2023-04-03T09:55:56;96352.44;;;15.89;50.87
52591;BME280;38483;42.620;25.394;2023-04-03T09:58:27;96351.63;;;15.89;50.07
52591;BME280;38483;42.620;25.394;2023-04-03T10:04:13;96319.66;;;15.41;51.19
52591;BME280;38483;42.620;25.394;2023-04-03T10:06:45;96362.66;;;15.59;51.66
52591;BME280;38483;42.620;25.394;2023-04-03T10:09:28;96351.50;;;15.79;51.49
52591;BME280;38483;42.620;25.394;2023-04-03T10:12:06;96355.53;;;15.83;51.28
52591;BME280;38483;42.620;25.394;2023-04-03T10:14:36;96326.13;;;15.70;51.07
52591;BME280;38483;42.620;25.394;2023-04-03T10:25:44;96345.31;;;15.58;52.71
52591;BME280;38483;42.620;25.394;2023-04-03T10:27:58;96346.75;;;15.73;52.55
52591;BME280;38483;42.620;25.394;2023-04-03T10:30:36;96332.75;;;15.74;52.44
52591;BME280;38483;42.620;25.394;2023-04-03T10:36:21;96328.34;;;15.75;52.24
52591;BME280;38483;42.620;25.394;2023-04-03T10:39:04;96305.94;;;15.61;52.46
52591;BME280;38483;42.620;25.394;2023-04-03T10:56:32;96279.25;;;15.58;50.47
52591;BME280;38483;42.620;25.394;2023-04-03T10:58:30;96281.25;;;15.76;52.13
52591;BME280;38483;42.620;25.394;2023-04-03T11:01:16;96266.19;;;15.69;53.51
52591;BME280;38483;42.620;25.394;2023-04-03T11:03:49;96283.38;;;15.71;54.46
52591;BME280;38483;42.620;25.394;2023-04-03T11:06:21;96303.66;;;15.90;55.99
52591;BME280;38483;42.620;25.394;2023-04-03T11:09:30;96306.63;;;15.85;54.44
52591;BME280;38483;42.620;25.394;2023-04-03T11:12:05;96286.84;;;15.72;54.02
52591;BME280;38483;42.620;25.394;2023-04-03T11:14:36;96306.41;;;15.66;53.87
52591;BME280;38483;42.620;25.394;2023-04-03T11:17:26;96299.03;;;15.60;53.23
52591;BME280;38483;42.620;25.394;2023-04-03T11:20:28;96307.47;;;15.53;52.79
52591;BME280;38483;42.620;25.394;2023-04-03T11:23:31;96299.41;;;15.67;52.25
52591;BME280;38483;42.620;25.394;2023-04-03T11:26:20;96297.97;;;15.63;52.10
52591;BME280;38483;42.620;25.394;2023-04-03T11:28:53;96304.97;;;15.73;52.25
52591;BME280;38483;42.620;25.394;2023-04-03T11:37:01;96295.84;;;15.45;51.62
52591;BME280;38483;42.620;25.394;2023-04-03T11:39:33;96312.31;;;15.46;51.79
52591;BME280;38483;42.620;25.394;2023-04-03T11:42:39;96311.00;;;15.40;51.98
52591;BME280;38483;42.620;25.394;2023-04-03T11:47:52;96289.16;;;15.41;52.20
52591;BME280;38483;42.620;25.394;2023-04-03T12:04:15;96305.19;;;15.37;55.91
52591;BME280;38483;42.620;25.394;2023-04-03T12:08:48;96307.19;;;15.33;58.56
52591;BME280;38483;42.620;25.394;2023-04-03T12:11:26;96314.41;;;15.30;60.34
52591;BME280;38483;42.620;25.394;2023-04-03T12:19:27;96304.50;;;15.00;62.10
52591;BME280;38483;42.620;25.394;2023-04-03T12:22:18;96307.56;;;14.83;64.31
52591;BME280;38483;42.620;25.394;2023-04-03T12:24:51;96309.31;;;14.83;65.72
52591;BME280;38483;42.620;25.394;2023-04-03T12:35:14;96304.44;;;14.43;67.76
52591;BME280;38483;42.620;25.394;2023-04-03T12:46:18;96297.41;;;14.20;69.70
52591;BME280;38483;42.620;25.394;2023-04-03T12:54:12;96292.41;;;13.94;73.54
52591;BME280;38483;42.620;25.394;2023-04-03T12:56:40;96292.56;;;13.67;75.15
52591;BME280;38483;42.620;25.394;2023-04-03T12:59:17;96279.25;;;13.59;76.50
52591;BME280;38483;42.620;25.394;2023-04-03T13:01:59;96273.19;;;13.71;77.43
52591;BME280;38483;42.620;25.394;2023-04-03T13:04:29;96271.03;;;13.65;78.51
52591;BME280;38483;42.620;25.394;2023-04-03T13:06:57;96255.81;;;13.23;80.29
52591;BME280;38483;42.620;25.394;2023-04-03T13:09:30;96256.84;;;13.33;81.71
52591;BME280;38483;42.620;25.394;2023-04-03T13:12:15;96249.16;;;13.06;82.24
52591;BME280;38483;42.620;25.394;2023-04-03T13:14:56;96259.34;;;13.22;82.22
52591;BME280;38483;42.620;25.394;2023-04-03T13:17:25;96252.06;;;13.27;81.55
52591;BME280;38483;42.620;25.394;2023-04-03T13:19:54;96199.94;;;12.90;83.29
52591;BME280;38483;42.620;25.394;2023-04-03T13:22:36;96242.91;;;12.96;85.18
52591;BME280;38483;42.620;25.394;2023-04-03T13:25:13;96240.00;;;12.88;85.57
52591;BME280;38483;42.620;25.394;2023-04-03T13:27:41;96239.56;;;12.81;86.35
52591;BME280;38483;42.620;25.394;2023-04-03T13:30:29;96245.41;;;13.10;84.60
52591;BME280;38483;42.620;25.394;2023-04-03T13:32:59;96220.53;;;12.93;84.57
52591;BME280;38483;42.620;25.394;2023-04-03T13:38:02;96227.41;;;13.20;83.98
52591;BME280;38483;42.620;25.394;2023-04-03T13:40:30;96237.06;;;12.92;84.35
52591;BME280;38483;42.620;25.394;2023-04-03T13:43:24;96234.78;;;12.75;85.90
52591;BME280;38483;42.620;25.394;2023-04-03T13:45:59;96233.13;;;12.99;86.01
52591;BME280;38483;42.620;25.394;2023-04-03T13:48:27;96220.84;;;12.76;85.95
52591;BME280;38483;42.620;25.394;2023-04-03T13:51:16;96221.88;;;12.74;86.65
52591;BME280;38483;42.620;25.394;2023-04-03T13:56:36;96233.50;;;12.68;87.52
52591;BME280;38483;42.620;25.394;2023-04-03T14:01:44;96229.78;;;12.72;87.32
52591;BME280;38483;42.620;25.394;2023-04-03T14:04:18;96230.41;;;12.88;86.86
52591;BME280;38483;42.620;25.394;2023-04-03T14:06:47;96216.59;;;12.88;86.81
52591;BME280;38483;42.620;25.394;2023-04-03T14:09:17;96217.56;;;13.12;86.87
52591;BME280;38483;42.620;25.394;2023-04-03T14:11:44;96231.34;;;12.87;88.49
52591;BME280;38483;42.620;25.394;2023-04-03T14:14:27;96212.94;;;12.90;87.75
52591;BME280;38483;42.620;25.394;2023-04-03T14:16:56;96200.16;;;12.50;89.93
52591;BME280;38483;42.620;25.394;2023-04-03T14:19:33;96218.22;;;12.51;90.13
52591;BME280;38483;42.620;25.394;2023-04-03T14:22:23;96223.56;;;12.75;89.90
52591;BME280;38483;42.620;25.394;2023-04-03T14:24:52;96222.72;;;12.74;89.90
52591;BME280;38483;42.620;25.394;2023-04-03T14:27:22;96216.59;;;12.88;88.57
52591;BME280;38483;42.620;25.394;2023-04-03T14:29:52;96223.44;;;13.01;88.40
52591;BME280;38483;42.620;25.394;2023-04-03T14:32:21;96188.00;;;12.50;89.33
52591;BME280;38483;42.620;25.394;2023-04-03T14:34:49;96207.13;;;12.74;88.73
52591;BME280;38483;42.620;25.394;2023-04-03T14:37:21;96210.25;;;12.79;88.13
52591;BME280;38483;42.620;25.394;2023-04-03T14:39:50;96193.41;;;12.72;86.61
52591;BME280;38483;42.620;25.394;2023-04-03T14:42:20;96185.00;;;12.56;86.06
52591;BME280;38483;42.620;25.394;2023-04-03T14:44:48;96195.16;;;12.59;84.31
52591;BME280;38483;42.620;25.394;2023-04-03T14:47:19;96207.13;;;12.62;83.88
52591;BME280;38483;42.620;25.394;2023-04-03T14:50:01;96205.13;;;12.65;83.59
52591;BME280;38483;42.620;25.394;2023-04-03T14:52:34;96201.50;;;12.55;83.13
52591;BME280;38483;42.620;25.394;2023-04-03T14:55:04;96197.56;;;12.75;83.68
52591;BME280;38483;42.620;25.394;2023-04-03T14:57:33;96196.41;;;12.66;82.93